AirNav   Air Wisconsin pilot careers
 
 1037 users online  

3VS Roy Otten Memorial Airfield
Versailles, Missouri, USA

GOING TO VERSAILLES?


FAA INFORMATION EFFECTIVE 25 APRIL 2019

Location

FAA Identifier: 3VS
Lat/Long: 38-25-41.8000N / 092-52-31.0000W
38-25.696667N / 092-52.516667W
38.4282778 / -92.8752778
(estimated)
Elevation: 1027 ft. / 313 m (estimated)
Variation: 04E (1985)
From city: 2 miles W of VERSAILLES, MO
Time zone: UTC -5 (UTC -6 during Standard Time)
Zip code: 65084

Airport Operations

Airport use: Open to the public
Activation date: 03/1971
Control tower: no
ARTCC: KANSAS CITY CENTER
FSS: COLUMBIA FLIGHT SERVICE STATION
NOTAMs facility: COU (NOTAM-D service available)
Attendance: 0800-1700
Wind indicator: lighted
Segmented circle: yes
Lights: ACTVT LIRL RY 07/25 - CTAF, CLICK 3 TIMES.
Beacon: white-green (lighted land airport)
Operates sunset to sunrise.

Airport Communications

CTAF/UNICOM: 122.8

Nearby radio navigation aids

VOR radial/distance  VOR name  Freq  Var
SHYr331/26.6SUNSHINE VOR/DME108.4000E
COUr233/38.4COLUMBIA VOR/DME110.2000E

 
NDB name  Hdg/Dist  Freq  Var  ID
SEDALIA137/21.828103EDMO -.. -- ---
GOLDEN VALLEY083/38.338801EGLY --. .-.. -.--
MARSHALL155/39.837103EPUR .--. ..- .-.

Airport Services

Fuel available: 100LL
FUEL AVBL 24 HRS SELF-SVC.
Parking: hangars and tiedowns
Airframe service: MAJOR
Powerplant service: MAJOR
Bottled oxygen: NONE
Bulk oxygen: NONE

Runway Information

Runway 7/25

Dimensions: 2805 x 39 ft. / 855 x 12 m
WIDTH VARIANCE 39-40 FT.
Surface: asphalt, in fair condition
Runway edge lights: non-standard
NSTD LIRL; THLD LGTS SPACED INCORRECTLY; THLD & EDGE LGTS PLACED 11-18 FT FM RY EDGE.
Runway edge markings: CENTERLINE MARKINGS FADED.
Gradient: 0.9% UP W.
RUNWAY 7  RUNWAY 25
Latitude: 38-25.627500N38-25.765167N
Longitude: 092-52.796333W092-52.235333W
Elevation: 1027.0 ft.1003.0 ft.
Traffic pattern: leftright
Markings: basic, in fair conditionbasic, in fair condition
Obstructions: 58 ft. trees, 631 ft. from runway, 87 ft. right of centerline, 7:1 slope to clear45 ft. trees, 302 ft. from runway, 63 ft. left of centerline, 2:1 slope to clear
8 FT ROAD 105-200 FT FM RWY END 40-125L; 1-30 FT BRUSH & TREES 0-200 FT FM RWY END 90-125 FT R; 5 FT DIRT PILE 156 FT FM RWY END 55L

Helipad H1

Dimensions: 50 x 50 ft. / 15 x 15 m
Surface: concrete, in good condition
Runway edge lights: PERI
Runway edge markings: MARKINGS FADED.
Traffic pattern: leftleft
Markings: basic, in fair condition
Obstructions: trees
+45 FT TREES, 380 FT NW OF FATO, 8:1 APCH SLOPE; +14-52 FT TREES, 490 FT SSE OF FATO, 8:1 APCH SLOPE.

Airport Ownership and Management from official FAA records

Ownership: Publicly-owned
Owner: CITY OF VERSAILLES
104 N. FISHER ST.
VERSAILLES, MO 65084
Phone 573-378-4634
Manager: BILL FORESTER
10998 HWY 52
VERSAILLES, MO 65084
Phone 573-378-6373
AMGR CELL: 573-836-0506

Airport Operational Statistics

Aircraft based on the field: 25
Single engine airplanes: 23
Multi engine airplanes: 1
Helicopters: 1
    
Aircraft operations: avg 22/day *
49% transient general aviation
49% local general aviation
2% military
* for 12-month period ending 31 December 2015

Additional Remarks

CROP DUSTING ACFT AND HELICOPTERS; AND ULTRALIGHT ACTIVITY ON AND INVOF ARPT.
DEER & WILDLIFE ON & INVOF ARPT.
RY 07/25 LINE OF SIGHT OBSTRUCTED BY GRADE CHANGE IN RY.
NTSD RY SAFETY AREA BYND EACH RY END; INCORRECT TERRAIN GRADES, LARGE DROP OFF AT RY 07 END, ROAD AT RY 25 END.

Instrument Procedures

There are no published instrument procedures at 3VS.

Some nearby airports with instrument procedures:

H79 - Eldon Model Airpark (15 nm E)
K15 - Grand Glaize-Osage Beach Airport (21 nm SE)
KDMO - Sedalia Regional Airport (22 nm NW)
KRAW - Warsaw Municipal Airport (23 nm W)
KAIZ - Lee C Fine Memorial Airport (25 nm SE)
 
Loc | Ops | Rwys | IFR | FBO | Links
Com | Nav | Svcs | Stats | Notes

Kansas City Aviation Department
 
Area around 3VS (Roy Otten Memorial Airfield)
 
Road maps at: MapQuest Bing Google
 
Aerial photo
WARNING: Photo may not be current or correct
Aerial photo of 3VS (Roy Otten Memorial Airfield)
Do you have a better or more recent aerial photo of Roy Otten Memorial Airfield that you would like to share? If so, please send us your photo.

 
Sectional chart

 
Airport distance calculator
Flying to Roy Otten Memorial Airfield? Find the distance to fly.

From to 3VS

Sunrise and sunset
Times for 21-May-2019
 Local
(UTC-5)
 Zulu
(UTC)
Morning civil twilight05:2610:26
Sunrise05:5610:56
Sunset20:2001:20
Evening civil twilight20:5001:50

Current date and time
Zulu (UTC)  22-May-2019 01:11:50
Local (UTC-5)  21-May-2019 20:11:50
 
METAR
KDMO 
22nm NW 
220053Z AUTO 15011KT 10SM CLR 15/13 A2958 RMK AO2 SLP015 T01500133 $
KRAW 
23nm W 
220055Z AUTO 15008KT 10SM CLR A2959 RMK AO2 LTG DSNT S
KAIZ 
25nm SE 
220056Z AUTO 16009G17KT 10SM CLR 16/14 A2963 RMK AO2 SLP027 T01560139
KOZS 
29nm S 
220055Z AUTO 14013G17KT 10SM CLR 15/12 A2963 RMK AO2
KVER 
32nm N 
220055Z AUTO 13009G15KT 10SM CLR 17/17 A2959 RMK AO2 T01690169
KSZL 
35nm NW 
212223Z 14008KT 10SM BKN050 17/17 A2947 RMK AO2A RAE04DZB04E06 PRESRR SLP981 $
KJEF 
36nm E 
220053Z 12015KT 10SM CLR 17/14 A2960 RMK AO2 RAE19 SLP014 P0002 T01720144
KGLY 
38nm W 
220035Z AUTO 19013G16KT 10SM CLR 18/14 A2955 RMK AO2
KCOU 
39nm NE 
220054Z 14012G21KT 10SM CLR 16/14 A2961 RMK AO2 RAE09 SLP023 P0000 T01610144 $
KMHL 
43nm N 
220055Z AUTO 29015G19KT 10SM CLR 16/14 A2956 RMK AO2 TSNO
TAF
KSZL 
35nm NW 
212050Z 2120/2301 14012KT 6000 -RA BKN005 OVC020 QNH2944INS BECMG 2121/2122 16012KT 8000 -RA BKN012 OVC020 QNH2944INS BECMG 2122/2123 16012KT 8000 -RA BKN025 OVC030 QNH2945INS BECMG 2201/2202 17012KT 9999 NSW FEW025 SCT050 QNH2946INS BECMG 2213/2214 20012G18KT 9999 FEW030 QNH2973INS TEMPO 2222/2223 VRB15G25KT 3200 -TSRA BKN030CB TX24/2219Z TN09/2211Z
KCOU 
39nm NE 
220008Z 2200/2224 15012G20KT 6SM -SHRA OVC035 FM220200 18009KT P6SM VCSH SCT070 FM220300 17009KT P6SM FEW250 FM221300 18009KT P6SM FEW250
NOTAMs
Click for the latest NOTAMs
NOTAMs are issued by the DoD/FAA and will open in a separate window not controlled by AirNav.

 

 
 

FBO, Fuel Providers, and Aircraft Ground Support

  
 Business Name 
 
 Contact 
 
 Services / Description 
 
Fuel Prices
 
Comments
  
Forester Aviation 573-836-0506
no information available

If you are affiliated with Forester Aviation and would like to show here your services, contact info, web link, logo, and more, click here
100LL
SS $4.20 
 Updated 11-Jun-2018
 
   write
SS=Self service
Update Fuel Prices
 

Would you like to see your business listed on this page?

 If your business provides an interesting product or service to pilots, flight crews, aircraft, or users of the Roy Otten Memorial Airfield, you should consider listing it here.  To start the listing process, click on the button below
 
Add a business
 

Other Pages about Roy Otten Memorial Airfield

Update a link
 
Copyright © AirNav, LLC. All rights reserved. Privacy Policy  Contact